createdAt,value
2018-10-17T00:02:14.981Z,10.25
2018-10-17T00:04:43.393Z,10.21
2018-10-17T00:07:11.852Z,10.18
2018-10-17T00:09:40.181Z,10.15
2018-10-17T00:12:08.572Z,10.12
2018-10-17T00:14:36.949Z,10.10
2018-10-17T00:17:06.040Z,10.05
2018-10-17T00:19:34.409Z,10.05
2018-10-17T00:22:02.797Z,10.04
2018-10-17T00:24:31.165Z,10.02
2018-10-17T00:26:59.586Z,10.01
2018-10-17T00:29:28.193Z,9.99
2018-10-17T00:31:56.585Z,10.00
2018-10-17T00:34:24.989Z,9.98
2018-10-17T00:36:53.383Z,9.98
2018-10-17T00:39:21.775Z,9.97
2018-10-17T00:41:50.145Z,9.94
2018-10-17T00:44:18.541Z,9.92
2018-10-17T00:46:46.907Z,9.91
2018-10-17T00:49:15.385Z,9.91
2018-10-17T00:51:43.681Z,9.91
2018-10-17T00:54:12.069Z,9.89
2018-10-17T00:56:40.438Z,9.88
2018-10-17T00:59:12.130Z,9.87
2018-10-17T01:01:40.657Z,9.86
2018-10-17T01:04:09.364Z,9.83
2018-10-17T01:06:38.234Z,9.81
2018-10-17T01:09:10.090Z,9.77
2018-10-17T01:11:38.977Z,9.75
2018-10-17T01:14:07.796Z,9.72
2018-10-17T01:16:36.167Z,9.67
2018-10-17T01:19:05.199Z,9.61
2018-10-17T01:21:34.237Z,9.57
2018-10-17T01:24:02.781Z,9.55
2018-10-17T01:26:31.157Z,9.48
2018-10-17T01:28:59.557Z,9.45
2018-10-17T01:31:28.266Z,9.41
2018-10-17T01:33:56.681Z,9.39
2018-10-17T01:36:25.045Z,9.37
2018-10-17T01:38:53.441Z,9.36
2018-10-17T01:41:21.813Z,9.36
2018-10-17T01:43:50.205Z,9.34
2018-10-17T01:46:18.568Z,9.34
2018-10-17T01:48:46.965Z,9.33
2018-10-17T01:51:15.327Z,9.31
2018-10-17T01:53:51.357Z,9.31
2018-10-17T01:56:19.725Z,9.29
2018-10-17T01:58:48.117Z,9.28
2018-10-17T02:01:16.501Z,9.26
2018-10-17T02:03:44.897Z,9.22
2018-10-17T02:06:13.313Z,9.23
2018-10-17T02:08:41.713Z,9.21
2018-10-17T02:11:10.101Z,9.17
2018-10-17T02:13:38.509Z,9.12
2018-10-17T02:16:06.889Z,9.09
2018-10-17T02:18:35.277Z,9.06
2018-10-17T02:21:03.656Z,9.04
2018-10-17T02:23:32.053Z,9.01
2018-10-17T02:26:00.421Z,9.00
2018-10-17T02:28:28.821Z,8.99
2018-10-17T02:30:57.223Z,9.00
2018-10-17T02:33:25.628Z,8.99
2018-10-17T02:35:54.002Z,8.99
2018-10-17T02:38:22.409Z,8.98
2018-10-17T02:40:50.900Z,8.98
2018-10-17T02:43:19.355Z,8.96
2018-10-17T02:45:47.686Z,8.95
2018-10-17T02:48:16.058Z,8.94
2018-10-17T02:50:44.453Z,8.92
2018-10-17T02:53:12.927Z,8.90
2018-10-17T02:55:41.324Z,8.87
2018-10-17T02:58:09.716Z,8.85
2018-10-17T03:00:38.127Z,8.84
2018-10-17T03:03:06.527Z,8.81
2018-10-17T03:05:34.922Z,8.80
2018-10-17T03:08:03.335Z,8.79
2018-10-17T03:10:31.758Z,8.78
2018-10-17T03:13:00.367Z,8.78
2018-10-17T03:15:28.767Z,8.77
2018-10-17T03:17:57.147Z,8.77
2018-10-17T03:20:25.555Z,8.75
2018-10-17T03:22:53.960Z,8.75
2018-10-17T03:25:22.360Z,8.74
2018-10-17T03:27:50.807Z,8.70
2018-10-17T03:30:19.208Z,8.69
2018-10-17T03:32:47.625Z,8.66
2018-10-17T03:35:16.121Z,8.65
2018-10-17T03:37:44.453Z,8.61
2018-10-17T03:40:12.861Z,8.59
2018-10-17T03:42:41.244Z,8.56
2018-10-17T03:45:09.655Z,8.56
2018-10-17T03:47:38.048Z,8.55
2018-10-17T03:50:06.475Z,8.53
2018-10-17T03:52:34.850Z,8.50
2018-10-17T03:55:03.304Z,8.47
2018-10-17T03:57:31.653Z,8.44
2018-10-17T04:00:00.048Z,8.42
2018-10-17T04:02:28.418Z,8.38
2018-10-17T04:04:56.832Z,8.36
2018-10-17T04:07:25.224Z,8.34
2018-10-17T04:09:53.618Z,8.33
2018-10-17T04:12:22.003Z,8.32
2018-10-17T04:14:50.421Z,8.30
2018-10-17T04:17:18.869Z,8.25
2018-10-17T04:19:47.224Z,8.29
2018-10-17T04:22:15.601Z,8.29
2018-10-17T04:24:44.011Z,8.30
2018-10-17T04:27:12.388Z,8.31
2018-10-17T04:29:40.819Z,8.32
2018-10-17T04:32:09.394Z,8.32
2018-10-17T04:34:37.801Z,8.31
2018-10-17T04:37:06.278Z,8.32
2018-10-17T04:39:34.648Z,8.30
2018-10-17T04:42:03.050Z,8.29
2018-10-17T04:44:31.431Z,8.28
2018-10-17T04:46:59.844Z,8.26
2018-10-17T04:49:28.222Z,8.26
2018-10-17T04:51:56.623Z,8.23
2018-10-17T04:54:24.999Z,8.21
2018-10-17T04:56:53.398Z,8.19
2018-10-17T04:59:21.780Z,8.19
2018-10-17T05:01:50.191Z,8.19
2018-10-17T05:04:18.585Z,8.18
2018-10-17T05:06:47.092Z,8.17
2018-10-17T05:09:15.678Z,8.16
2018-10-17T05:11:44.080Z,8.15
2018-10-17T05:14:12.457Z,8.14
2018-10-17T05:16:40.848Z,8.12
2018-10-17T05:19:09.263Z,8.11
2018-10-17T05:21:37.651Z,8.09
2018-10-17T05:24:06.044Z,8.08
2018-10-17T05:26:34.447Z,8.09
2018-10-17T05:29:02.909Z,8.07
2018-10-17T05:31:31.291Z,8.05
2018-10-17T05:33:59.667Z,8.05
2018-10-17T05:36:28.071Z,8.04
2018-10-17T05:38:56.472Z,8.02
2018-10-17T05:41:24.865Z,7.99
2018-10-17T05:43:53.333Z,7.95
2018-10-17T05:46:21.725Z,7.90
2018-10-17T05:48:50.211Z,7.86
2018-10-17T05:51:18.607Z,7.85
2018-10-17T05:53:46.978Z,7.84
2018-10-17T05:56:15.379Z,7.85
2018-10-17T05:58:43.757Z,7.86
2018-10-17T06:01:12.292Z,7.88
2018-10-17T06:03:40.575Z,7.91
2018-10-17T06:06:08.966Z,7.93
2018-10-17T06:08:37.361Z,7.96
2018-10-17T06:11:05.867Z,7.99
2018-10-17T06:13:34.233Z,8.03
2018-10-17T06:16:02.615Z,8.05
2018-10-17T06:18:31.035Z,8.08
2018-10-17T06:20:59.408Z,8.14
2018-10-17T06:23:27.811Z,8.17
2018-10-17T06:25:56.183Z,8.20
2018-10-17T06:28:24.618Z,8.22
2018-10-17T06:30:53.035Z,8.27
2018-10-17T06:33:21.425Z,8.32
2018-10-17T06:35:49.793Z,8.37
2018-10-17T06:38:18.194Z,8.43
2018-10-17T06:40:46.567Z,8.46
2018-10-17T06:43:15.089Z,8.57
2018-10-17T06:45:43.452Z,8.63
2018-10-17T06:48:11.846Z,8.72
2018-10-17T06:50:40.217Z,8.79
2018-10-17T06:53:08.735Z,8.85
2018-10-17T06:55:37.065Z,8.92
2018-10-17T06:58:05.607Z,8.97
2018-10-17T07:00:33.985Z,9.00
2018-10-17T07:03:02.391Z,9.04
2018-10-17T07:05:30.768Z,9.08
2018-10-17T07:07:59.187Z,9.13
2018-10-17T07:10:27.751Z,9.19
2018-10-17T07:12:56.225Z,9.25
2018-10-17T07:15:24.632Z,9.34
2018-10-17T07:17:52.995Z,9.43
2018-10-17T07:20:21.381Z,9.50
2018-10-17T07:22:49.791Z,9.58
2018-10-17T07:25:18.254Z,9.66
2018-10-17T07:27:46.619Z,9.74
2018-10-17T07:30:15.029Z,9.81
2018-10-17T07:32:43.420Z,9.90
2018-10-17T07:35:11.823Z,9.99
2018-10-17T07:37:40.202Z,10.07
2018-10-17T07:40:08.699Z,10.14
2018-10-17T07:42:37.083Z,10.23
2018-10-17T07:45:06.366Z,10.32
2018-10-17T07:47:34.780Z,10.41
2018-10-17T07:50:03.344Z,10.50
2018-10-17T07:52:31.735Z,10.59
2018-10-17T07:55:00.155Z,10.70
2018-10-17T07:57:28.547Z,10.79
2018-10-17T07:59:56.958Z,10.91
2018-10-17T08:02:25.343Z,11.04
2018-10-17T08:04:53.755Z,11.16
2018-10-17T08:07:22.139Z,11.26
2018-10-17T08:09:50.542Z,11.38
2018-10-17T08:12:19.006Z,11.50
2018-10-17T08:14:47.447Z,11.62
2018-10-17T08:17:15.835Z,11.75
2018-10-17T08:19:44.239Z,11.87
2018-10-17T08:22:12.619Z,12.00
2018-10-17T08:24:41.013Z,12.12
2018-10-17T08:27:09.407Z,12.23
2018-10-17T08:29:37.811Z,12.33
2018-10-17T08:32:07.387Z,12.45
2018-10-17T08:34:35.789Z,12.58
2018-10-17T08:37:04.516Z,12.68
2018-10-17T08:39:32.620Z,12.81
2018-10-17T08:42:01.005Z,12.91
2018-10-17T08:44:29.471Z,13.02
2018-10-17T08:46:57.855Z,13.12
2018-10-17T08:49:26.255Z,13.23
2018-10-17T08:51:54.643Z,13.35
2018-10-17T08:54:23.054Z,13.46
2018-10-17T08:56:51.434Z,13.58
2018-10-17T08:59:19.838Z,13.71
2018-10-17T09:01:48.229Z,13.82
2018-10-17T09:04:16.633Z,13.95
2018-10-17T09:06:45.010Z,14.04
2018-10-17T09:09:14.073Z,14.16
2018-10-17T09:11:42.783Z,14.28
2018-10-17T09:14:11.749Z,14.38
2018-10-17T09:16:40.577Z,14.48
2018-10-17T09:19:09.672Z,14.59
2018-10-17T09:21:38.487Z,14.69
2018-10-17T09:24:06.796Z,14.80
2018-10-17T09:26:35.227Z,14.89
2018-10-17T09:29:03.653Z,15.02
2018-10-17T09:31:32.078Z,15.13
2018-10-17T09:34:00.524Z,15.23
2018-10-17T09:36:28.903Z,15.34
2018-10-17T09:38:57.285Z,15.45
2018-10-17T09:41:25.696Z,15.55
2018-10-17T09:43:54.091Z,15.68
2018-10-17T09:46:22.513Z,15.80
2018-10-17T09:48:50.894Z,15.89
2018-10-17T09:51:19.298Z,16.00
2018-10-17T09:53:47.674Z,16.10
2018-10-17T09:56:16.070Z,16.22
2018-10-17T09:58:44.463Z,16.33
2018-10-17T10:01:16.523Z,16.45
2018-10-17T10:03:44.939Z,16.54
2018-10-17T10:06:13.524Z,16.64
2018-10-17T10:08:41.917Z,16.74
2018-10-17T10:11:10.422Z,16.81
2018-10-17T10:13:38.746Z,16.92
2018-10-17T10:16:07.186Z,17.03
2018-10-17T10:18:35.550Z,17.15
2018-10-17T10:21:03.959Z,17.23
2018-10-17T10:23:32.358Z,17.32
2018-10-17T10:26:00.869Z,17.41
2018-10-17T10:28:29.288Z,17.51
2018-10-17T10:30:57.712Z,17.60
2018-10-17T10:33:26.087Z,17.69
2018-10-17T10:35:54.497Z,17.80
2018-10-17T10:38:22.922Z,17.88
2018-10-17T10:40:51.321Z,17.98
2018-10-17T10:43:19.703Z,18.08
2018-10-17T10:45:48.121Z,18.17
2018-10-17T10:48:16.613Z,18.24
2018-10-17T10:50:44.930Z,18.31
2018-10-17T10:53:13.305Z,18.39
2018-10-17T10:55:41.701Z,18.47
2018-10-17T10:58:10.145Z,18.55
2018-10-17T11:00:39.535Z,18.63
2018-10-17T11:03:07.973Z,18.71
2018-10-17T11:05:36.351Z,18.80
2018-10-17T11:08:04.844Z,18.90
2018-10-17T11:10:33.166Z,18.97
2018-10-17T11:13:01.544Z,19.03
2018-10-17T11:15:29.931Z,19.09
2018-10-17T11:17:58.335Z,19.15
2018-10-17T11:20:26.723Z,19.21
2018-10-17T11:22:55.201Z,19.29
2018-10-17T11:25:23.552Z,19.35
2018-10-17T11:27:51.950Z,19.41
2018-10-17T11:30:20.446Z,19.47
2018-10-17T11:32:48.881Z,19.54
2018-10-17T11:35:17.399Z,19.59
2018-10-17T11:37:45.776Z,19.67
2018-10-17T11:40:14.260Z,19.74
2018-10-17T11:42:42.538Z,19.77
2018-10-17T11:45:10.989Z,19.82
2018-10-17T11:47:39.382Z,19.85
2018-10-17T11:50:09.183Z,19.89
2018-10-17T11:52:37.791Z,19.94
2018-10-17T11:55:06.332Z,19.96
2018-10-17T11:57:34.851Z,20.00
2018-10-17T12:00:03.478Z,20.02
2018-10-17T12:02:31.891Z,20.05
2018-10-17T12:05:00.469Z,20.07
2018-10-17T12:07:28.715Z,20.10
2018-10-17T12:09:57.111Z,20.13
2018-10-17T12:12:25.557Z,20.16
2018-10-17T12:14:54.064Z,20.19
2018-10-17T12:17:22.455Z,20.22
2018-10-17T12:19:50.903Z,20.25
2018-10-17T12:22:19.267Z,20.28
2018-10-17T12:24:47.659Z,20.32
2018-10-17T12:27:16.145Z,20.34
2018-10-17T12:29:44.501Z,20.36
2018-10-17T12:32:12.927Z,20.39
2018-10-17T12:34:41.431Z,20.43
2018-10-17T12:37:09.822Z,20.46
2018-10-17T12:39:38.215Z,20.48
2018-10-17T12:42:06.623Z,20.50
2018-10-17T12:44:35.011Z,20.52
2018-10-17T12:47:03.434Z,20.55
2018-10-17T12:49:31.849Z,20.57
2018-10-17T12:52:00.287Z,20.61
2018-10-17T12:54:28.669Z,20.65
2018-10-17T12:56:57.039Z,20.67
2018-10-17T12:59:25.444Z,20.70
2018-10-17T13:01:53.831Z,20.71
2018-10-17T13:04:22.232Z,20.75
2018-10-17T13:06:50.609Z,20.77
2018-10-17T13:09:19.001Z,20.80
2018-10-17T13:11:47.433Z,20.82
2018-10-17T13:14:15.849Z,20.84
2018-10-17T13:16:44.235Z,20.86
2018-10-17T13:19:12.705Z,20.90
2018-10-17T13:21:41.044Z,20.93
2018-10-17T13:24:09.451Z,20.94
2018-10-17T13:26:37.821Z,20.95
2018-10-17T13:29:06.661Z,20.95
2018-10-17T13:31:35.019Z,20.95
2018-10-17T13:34:03.482Z,20.94
2018-10-17T13:36:31.866Z,20.95
2018-10-17T13:39:00.357Z,20.96
2018-10-17T13:41:28.733Z,20.97
2018-10-17T13:43:57.129Z,20.99
2018-10-17T13:46:25.514Z,20.99
2018-10-17T13:48:53.959Z,20.99
2018-10-17T13:51:22.343Z,20.99
2018-10-17T13:53:50.747Z,21.00
2018-10-17T13:56:19.235Z,21.01
2018-10-17T13:58:47.641Z,21.04
2018-10-17T14:01:16.098Z,21.03
2018-10-17T14:03:44.459Z,21.02
2018-10-17T14:06:12.919Z,21.01
2018-10-17T14:08:41.281Z,20.99
2018-10-17T14:11:09.665Z,20.99
2018-10-17T14:13:38.086Z,20.98
2018-10-17T14:16:06.749Z,20.97
2018-10-17T14:18:35.149Z,20.96
2018-10-17T14:21:03.599Z,20.95
2018-10-17T14:23:32.055Z,20.94
2018-10-17T14:26:00.589Z,20.92
2018-10-17T14:28:28.999Z,20.90
2018-10-17T14:30:59.125Z,20.89
2018-10-17T14:33:27.518Z,20.86
2018-10-17T14:35:56.022Z,20.83
2018-10-17T14:38:24.326Z,20.81
2018-10-17T14:40:52.719Z,20.79
2018-10-17T14:43:21.125Z,20.76
2018-10-17T14:45:49.540Z,20.73
2018-10-17T14:48:18.048Z,20.71
2018-10-17T14:50:46.357Z,20.68
2018-10-17T14:53:14.833Z,20.64
2018-10-17T14:55:43.255Z,20.62
2018-10-17T14:58:11.611Z,20.59
2018-10-17T15:00:40.026Z,20.55
2018-10-17T15:03:08.430Z,20.52
2018-10-17T15:05:36.947Z,20.47
2018-10-17T15:08:05.332Z,20.43
2018-10-17T15:10:33.833Z,20.38
2018-10-17T15:13:02.518Z,20.32
2018-10-17T15:15:30.917Z,20.27
2018-10-17T15:17:59.322Z,20.21
2018-10-17T15:20:27.744Z,20.15
2018-10-17T15:22:56.122Z,20.08
2018-10-17T15:25:24.527Z,20.05
2018-10-17T15:27:52.897Z,19.97
2018-10-17T15:30:21.323Z,19.91
2018-10-17T15:32:49.723Z,19.84
2018-10-17T15:35:18.122Z,19.76
2018-10-17T15:37:46.511Z,19.68
2018-10-17T15:40:14.912Z,19.61
2018-10-17T15:42:43.307Z,19.54
2018-10-17T15:45:11.765Z,19.46
2018-10-17T15:47:40.104Z,19.37
2018-10-17T15:50:08.514Z,19.29
2018-10-17T15:52:36.935Z,19.22
2018-10-17T15:55:05.703Z,19.13
2018-10-17T15:57:34.074Z,19.06
2018-10-17T16:00:02.543Z,18.98
2018-10-17T16:02:30.947Z,18.89
2018-10-17T16:04:59.314Z,18.80
2018-10-17T16:07:27.691Z,18.71
2018-10-17T16:09:56.099Z,18.62
2018-10-17T16:12:24.483Z,18.51
2018-10-17T16:14:52.888Z,18.43
2018-10-17T16:17:21.270Z,18.32
2018-10-17T16:19:49.673Z,18.24
2018-10-17T16:22:18.081Z,18.13
2018-10-17T16:24:46.497Z,18.04
2018-10-17T16:27:14.884Z,17.95
2018-10-17T16:29:43.261Z,17.84
2018-10-17T16:32:11.737Z,17.74
2018-10-17T16:34:40.141Z,17.61
2018-10-17T16:37:08.553Z,17.49
2018-10-17T16:39:36.947Z,17.38
2018-10-17T16:42:05.865Z,17.32
2018-10-17T16:44:34.216Z,17.26
2018-10-17T16:47:02.661Z,17.19
2018-10-17T16:49:31.118Z,17.15
2018-10-17T16:51:59.496Z,17.09
2018-10-17T16:54:27.871Z,17.01
2018-10-17T16:56:56.298Z,16.95
2018-10-17T16:59:24.701Z,16.88
2018-10-17T17:01:53.115Z,16.80
2018-10-17T17:04:21.557Z,16.72
2018-10-17T17:06:50.055Z,16.65
2018-10-17T17:09:18.557Z,16.59
2018-10-17T17:11:46.902Z,16.51
2018-10-17T17:14:15.308Z,16.45
2018-10-17T17:16:43.715Z,16.37
2018-10-17T17:19:12.275Z,16.30
2018-10-17T17:21:40.702Z,16.24
2018-10-17T17:24:09.161Z,16.17
2018-10-17T17:26:37.534Z,16.11
2018-10-17T17:29:06.195Z,16.04
2018-10-17T17:31:34.620Z,15.97
2018-10-17T17:34:03.001Z,15.91
2018-10-17T17:36:31.724Z,15.85
2018-10-17T17:39:00.080Z,15.79
2018-10-17T17:41:28.478Z,15.72
2018-10-17T17:43:56.983Z,15.67
2018-10-17T17:46:25.397Z,15.61
2018-10-17T17:48:53.787Z,15.58
2018-10-17T17:51:22.201Z,15.52
2018-10-17T17:53:50.580Z,15.47
2018-10-17T17:56:18.985Z,15.42
2018-10-17T17:58:47.374Z,15.37
2018-10-17T18:01:15.782Z,15.31
2018-10-17T18:03:44.161Z,15.27
2018-10-17T18:06:12.570Z,15.21
2018-10-17T18:08:40.959Z,15.16
2018-10-17T18:11:18.008Z,15.11
2018-10-17T18:13:46.395Z,15.05
2018-10-17T18:16:14.844Z,15.01
2018-10-17T18:18:43.635Z,14.95
2018-10-17T18:21:12.083Z,14.90
2018-10-17T18:23:41.002Z,14.84
2018-10-17T18:26:09.722Z,14.78
2018-10-17T18:28:38.146Z,14.72
2018-10-17T18:31:06.586Z,14.66
2018-10-17T18:33:34.990Z,14.62
2018-10-17T18:36:03.575Z,14.56
2018-10-17T18:38:31.982Z,14.50
2018-10-17T18:41:00.575Z,14.42
2018-10-17T18:43:28.979Z,14.36
2018-10-17T18:45:57.362Z,14.28
2018-10-17T18:48:26.032Z,14.21
2018-10-17T18:50:54.471Z,14.12
2018-10-17T18:53:22.989Z,14.03
2018-10-17T18:55:52.031Z,13.95
2018-10-17T18:58:20.490Z,13.87
2018-10-17T19:00:48.873Z,13.77
2018-10-17T19:03:17.288Z,13.67
2018-10-17T19:05:45.678Z,13.55
2018-10-17T19:08:14.167Z,13.44
2018-10-17T19:10:42.495Z,13.33
2018-10-17T19:13:10.899Z,13.22
2018-10-17T19:15:39.322Z,13.13
2018-10-17T19:18:07.759Z,13.07
2018-10-17T19:20:36.202Z,13.01
2018-10-17T19:23:04.819Z,12.96
2018-10-17T19:25:33.205Z,12.92
2018-10-17T19:28:01.623Z,12.90
2018-10-17T19:30:30.052Z,12.87
2018-10-17T19:32:58.488Z,12.86
2018-10-17T19:35:26.853Z,12.85
2018-10-17T19:37:55.381Z,12.82
2018-10-17T19:40:23.749Z,12.80
2018-10-17T19:42:52.182Z,12.78
2018-10-17T19:45:20.575Z,12.76
2018-10-17T19:47:49.060Z,12.74
2018-10-17T19:50:17.561Z,12.73
2018-10-17T19:52:45.953Z,12.73
2018-10-17T19:55:14.365Z,12.70
2018-10-17T19:57:42.771Z,12.63
2018-10-17T20:00:13.163Z,12.53
2018-10-17T20:02:42.034Z,12.43
2018-10-17T20:05:10.691Z,12.33
2018-10-17T20:07:39.536Z,12.23
2018-10-17T20:10:07.942Z,12.16
2018-10-17T20:12:36.315Z,12.09
2018-10-17T20:15:05.102Z,12.06
2018-10-17T20:17:33.532Z,12.03
2018-10-17T20:20:02.026Z,12.01
2018-10-17T20:22:30.423Z,11.98
2018-10-17T20:24:58.859Z,11.95
2018-10-17T20:27:27.247Z,11.92
2018-10-17T20:29:55.656Z,11.89
2018-10-17T20:32:24.101Z,11.86
2018-10-17T20:34:52.506Z,11.82
2018-10-17T20:37:20.906Z,11.80
2018-10-17T20:39:49.324Z,11.76
2018-10-17T20:42:17.808Z,11.72
2018-10-17T20:44:46.154Z,11.67
2018-10-17T20:47:14.522Z,11.63
2018-10-17T20:49:43.027Z,11.58
2018-10-17T20:52:11.429Z,11.56
2018-10-17T20:54:39.825Z,11.52
2018-10-17T20:57:08.214Z,11.50
2018-10-17T20:59:36.619Z,11.48
2018-10-17T21:02:05.223Z,11.46
2018-10-17T21:04:33.616Z,11.44
2018-10-17T21:07:02.002Z,11.41
2018-10-17T21:09:30.406Z,11.39
2018-10-17T21:11:58.839Z,11.35
2018-10-17T21:14:27.253Z,11.32
2018-10-17T21:16:55.636Z,11.29
2018-10-17T21:19:24.037Z,11.24
2018-10-17T21:21:52.410Z,11.21
2018-10-17T21:24:20.815Z,11.15
2018-10-17T21:26:49.216Z,11.12
2018-10-17T21:29:17.663Z,11.09
2018-10-17T21:31:46.067Z,11.06
2018-10-17T21:34:14.471Z,11.03
2018-10-17T21:36:42.850Z,10.99
2018-10-17T21:39:12.623Z,10.95
2018-10-17T21:41:41.016Z,10.91
2018-10-17T21:44:10.478Z,10.88
2018-10-17T21:46:39.171Z,10.85
2018-10-17T21:49:08.490Z,10.79
2018-10-17T21:51:36.880Z,10.74
2018-10-17T21:54:05.706Z,10.71
2018-10-17T21:56:34.098Z,10.67
2018-10-17T21:59:02.608Z,10.62
2018-10-17T22:01:31.107Z,10.59
2018-10-17T22:03:59.487Z,10.55
2018-10-17T22:06:27.902Z,10.51
2018-10-17T22:08:56.291Z,10.48
2018-10-17T22:11:24.685Z,10.45
2018-10-17T22:13:53.087Z,10.41
2018-10-17T22:16:21.789Z,10.39
2018-10-17T22:18:50.255Z,10.36
2018-10-17T22:21:18.621Z,10.33
2018-10-17T22:23:46.993Z,10.30
2018-10-17T22:26:15.499Z,10.27
2018-10-17T22:28:43.840Z,10.27
2018-10-17T22:31:12.255Z,10.25
2018-10-17T22:33:40.644Z,10.22
2018-10-17T22:36:09.079Z,10.20
2018-10-17T22:38:37.453Z,10.16
2018-10-17T22:41:05.902Z,10.13
2018-10-17T22:43:34.298Z,10.11
2018-10-17T22:46:02.692Z,10.08
2018-10-17T22:48:31.078Z,10.06
2018-10-17T22:50:59.475Z,10.04
2018-10-17T22:53:27.852Z,10.01
2018-10-17T22:55:56.299Z,9.98
2018-10-17T22:58:24.983Z,9.94
2018-10-17T23:00:53.387Z,9.92
2018-10-17T23:03:21.758Z,9.91
2018-10-17T23:05:50.171Z,9.89
2018-10-17T23:08:18.961Z,9.87
2018-10-17T23:10:47.579Z,9.83
2018-10-17T23:13:15.954Z,9.80
2018-10-17T23:15:44.444Z,9.76
2018-10-17T23:18:12.819Z,9.72
2018-10-17T23:20:41.222Z,9.68
2018-10-17T23:23:09.585Z,9.65
2018-10-17T23:25:37.982Z,9.61
2018-10-17T23:28:06.354Z,9.56
2018-10-17T23:30:34.791Z,9.55
2018-10-17T23:33:03.166Z,9.54
2018-10-17T23:35:31.572Z,9.51
2018-10-17T23:38:00.008Z,9.49
2018-10-17T23:40:28.427Z,9.47
2018-10-17T23:42:56.807Z,9.43
2018-10-17T23:45:25.189Z,9.41
2018-10-17T23:47:53.636Z,9.39
2018-10-17T23:50:21.995Z,9.38
2018-10-17T23:52:50.398Z,9.37
2018-10-17T23:55:18.849Z,9.34
2018-10-17T23:57:47.256Z,9.33
